createdAt,value
2023-05-01T00:01:47.579Z,100037.20
2023-05-01T00:04:17.547Z,100033.40
2023-05-01T00:06:46.510Z,100035.60
2023-05-01T00:09:15.393Z,100036.60
2023-05-01T00:11:43.690Z,100038.00
2023-05-01T00:14:12.371Z,100034.80
2023-05-01T00:16:40.799Z,100033.60
2023-05-01T00:19:09.673Z,100038.60
2023-05-01T00:21:38.214Z,100041.20
2023-05-01T00:24:06.680Z,100042.40
2023-05-01T00:26:35.143Z,100047.80
2023-05-01T00:29:03.600Z,100049.80
2023-05-01T00:31:31.959Z,100052.20
2023-05-01T00:37:59.786Z,100046.80
2023-05-01T00:40:28.213Z,100045.20
2023-05-01T00:42:56.834Z,100049.40
2023-05-01T00:45:25.874Z,100049.00
2023-05-01T00:47:54.318Z,100053.00
2023-05-01T00:50:22.874Z,100057.00
2023-05-01T00:52:51.314Z,100057.00
2023-05-01T00:55:19.753Z,100054.20
2023-05-01T00:57:48.344Z,100053.60
2023-05-01T01:00:17.709Z,100058.80
2023-05-01T01:02:47.135Z,100059.80
2023-05-01T01:05:17.189Z,100063.60
2023-05-01T01:08:11.934Z,100063.40
2023-05-01T01:11:05.066Z,100059.40
2023-05-01T01:13:40.323Z,100063.80
2023-05-01T01:16:34.768Z,100060.40
2023-05-01T01:19:28.639Z,100075.40
2023-05-01T01:22:21.641Z,100072.80
2023-05-01T01:24:59.593Z,100066.60
2023-05-01T01:28:05.505Z,100063.80
2023-05-01T01:30:52.289Z,100067.60
2023-05-01T01:33:58.191Z,100066.80
2023-05-01T01:36:56.638Z,100071.00
2023-05-01T01:39:40.904Z,100070.20
2023-05-01T01:42:14.015Z,100074.20
2023-05-01T01:44:53.040Z,100075.00
2023-05-01T01:47:28.470Z,100080.60
2023-05-01T01:50:00.766Z,100078.60
2023-05-01T01:52:30.499Z,100078.20
2023-05-01T01:55:26.709Z,100075.20
2023-05-01T01:57:56.395Z,100077.80
2023-05-01T02:00:25.053Z,100075.20
2023-05-01T02:02:55.459Z,100076.20
2023-05-01T02:05:26.164Z,100076.80
2023-05-01T02:07:57.124Z,100078.60
2023-05-01T02:10:27.956Z,100078.60
2023-05-01T02:12:59.488Z,100074.00
2023-05-01T02:15:29.731Z,100077.20
2023-05-01T02:18:02.118Z,100077.20
2023-05-01T02:20:30.882Z,100077.20
2023-05-01T02:23:00.038Z,100081.40
2023-05-01T02:25:59.859Z,100082.00
2023-05-01T02:28:30.103Z,100084.00
2023-05-01T02:30:59.239Z,100088.00
2023-05-01T02:33:28.598Z,100090.60
2023-05-01T02:35:56.953Z,100091.20
2023-05-01T02:38:25.703Z,100098.40
2023-05-01T02:40:58.038Z,100093.80
2023-05-01T02:43:29.084Z,100097.20
2023-05-01T02:45:59.217Z,100098.60
2023-05-01T02:48:29.270Z,100105.60
2023-05-01T02:50:58.952Z,100100.00
2023-05-01T02:53:27.515Z,100105.80
2023-05-01T02:56:04.117Z,100104.60
2023-05-01T02:58:33.702Z,100105.40
2023-05-01T03:01:02.153Z,100110.40
2023-05-01T03:03:30.626Z,100111.40
2023-05-01T03:06:00.178Z,100111.40
2023-05-01T03:08:28.656Z,100118.60
2023-05-01T03:10:57.049Z,100120.20
2023-05-01T03:13:25.748Z,100119.80
2023-05-01T03:15:54.249Z,100119.20
2023-05-01T03:18:22.808Z,100126.40
2023-05-01T03:20:52.807Z,100132.00
2023-05-01T03:23:21.488Z,100131.60
2023-05-01T03:25:50.492Z,100134.20
2023-05-01T03:29:18.769Z,100132.40
2023-05-01T03:31:47.237Z,100137.60
2023-05-01T03:34:15.755Z,100139.80
2023-05-01T03:36:44.177Z,100142.80
2023-05-01T03:39:13.034Z,100145.20
2023-05-01T03:42:00.055Z,100152.20
2023-05-01T03:44:31.398Z,100152.20
2023-05-01T03:46:59.721Z,100160.20
2023-05-01T03:49:29.990Z,100162.00
2023-05-01T03:51:59.373Z,100166.40
2023-05-01T03:54:28.139Z,100168.20
2023-05-01T03:57:16.848Z,100175.20
2023-05-01T03:59:45.440Z,100173.40
2023-05-01T04:02:14.111Z,100176.40
2023-05-01T04:04:43.556Z,100176.40
2023-05-01T04:07:13.338Z,100181.60
2023-05-01T04:09:41.846Z,100181.60
2023-05-01T04:12:10.745Z,100181.60
2023-05-01T04:14:39.151Z,100182.80
2023-05-01T04:17:07.740Z,100181.00
2023-05-01T04:19:38.112Z,100182.20
2023-05-01T04:22:06.626Z,100186.80
2023-05-01T04:24:36.620Z,100188.40
2023-05-01T04:27:06.139Z,100187.40
2023-05-01T04:30:20.931Z,100189.60
2023-05-01T04:32:49.424Z,100191.20
2023-05-01T04:35:17.955Z,100193.20
2023-05-01T04:37:46.452Z,100196.40
2023-05-01T04:40:15.412Z,100194.60
2023-05-01T04:42:44.260Z,100196.80
2023-05-01T04:45:14.762Z,100199.60
2023-05-01T04:47:43.241Z,100197.00
2023-05-01T04:50:12.077Z,100200.80
2023-05-01T04:52:40.829Z,100199.20
2023-05-01T04:55:10.572Z,100208.40
2023-05-01T04:57:59.214Z,100213.60
2023-05-01T05:00:28.243Z,100216.80
2023-05-01T05:02:57.445Z,100215.80
2023-05-01T05:05:27.182Z,100220.20
2023-05-01T05:07:55.535Z,100224.00
2023-05-01T05:10:47.349Z,100229.80
2023-05-01T05:13:39.888Z,100238.40
2023-05-01T05:16:12.817Z,100248.00
2023-05-01T05:18:41.310Z,100252.80
2023-05-01T05:21:10.698Z,100253.80
2023-05-01T05:23:41.025Z,100250.80
2023-05-01T05:26:09.403Z,100253.20
2023-05-01T05:28:37.776Z,100252.60
2023-05-01T05:31:14.730Z,100260.00
2023-05-01T05:33:43.225Z,100261.40
2023-05-01T05:36:12.246Z,100261.60
2023-05-01T05:38:42.673Z,100267.60
2023-05-01T05:41:13.268Z,100273.40
2023-05-01T05:43:42.123Z,100280.20
2023-05-01T05:46:10.650Z,100285.40
2023-05-01T05:48:39.551Z,100282.60
2023-05-01T05:51:07.955Z,100285.60
2023-05-01T05:53:36.428Z,100289.40
2023-05-01T05:56:05.120Z,100292.80
2023-05-01T05:58:33.706Z,100292.20
2023-05-01T06:01:02.200Z,100293.20
2023-05-01T06:03:30.853Z,100298.20
2023-05-01T06:06:02.423Z,100301.00
2023-05-01T06:08:30.986Z,100296.60
2023-05-01T06:10:59.492Z,100293.20
2023-05-01T06:13:29.282Z,100295.80
2023-05-01T06:15:57.691Z,100296.40
2023-05-01T06:18:26.381Z,100297.00
2023-05-01T06:20:54.759Z,100303.80
2023-05-01T06:23:23.188Z,100303.80
2023-05-01T06:26:16.759Z,100307.60
2023-05-01T06:28:45.230Z,100308.60
2023-05-01T06:31:29.090Z,100311.00
2023-05-01T06:33:57.595Z,100309.80
2023-05-01T06:36:49.161Z,100313.20
2023-05-01T06:39:18.056Z,100312.40
2023-05-01T06:41:47.785Z,100309.20
2023-05-01T06:44:16.649Z,100317.00
2023-05-01T06:46:45.118Z,100319.60
2023-05-01T06:49:14.524Z,100316.20
2023-05-01T06:51:42.930Z,100315.00
2023-05-01T06:54:14.081Z,100322.60
2023-05-01T06:56:43.348Z,100324.60
2023-05-01T06:59:11.786Z,100328.00
2023-05-01T07:01:40.385Z,100330.20
2023-05-01T07:04:08.872Z,100337.00
2023-05-01T07:06:37.724Z,100331.40
2023-05-01T07:09:06.347Z,100341.40
2023-05-01T07:11:34.897Z,100338.20
2023-05-01T07:14:03.268Z,100346.20
2023-05-01T07:16:32.532Z,100346.00
2023-05-01T07:19:00.896Z,100351.20
2023-05-01T07:21:29.308Z,100350.20
2023-05-01T07:23:57.840Z,100353.80
2023-05-01T07:26:29.390Z,100356.40
2023-05-01T07:28:57.815Z,100355.40
2023-05-01T07:31:26.186Z,100355.20
2023-05-01T07:33:54.560Z,100353.00
2023-05-01T07:36:23.053Z,100356.60
2023-05-01T07:38:51.384Z,100358.80
2023-05-01T07:41:19.748Z,100359.20
2023-05-01T07:43:48.078Z,100358.40
2023-05-01T07:46:17.243Z,100367.00
2023-05-01T07:48:46.120Z,100366.60
2023-05-01T07:51:14.870Z,100368.40
2023-05-01T07:53:43.337Z,100368.20
2023-05-01T07:56:11.772Z,100370.20
2023-05-01T07:58:41.846Z,100373.40
2023-05-01T08:01:14.073Z,100369.20
2023-05-01T08:03:42.689Z,100377.20
2023-05-01T08:06:11.273Z,100376.20
2023-05-01T08:08:41.660Z,100383.40
2023-05-01T08:11:10.223Z,100378.40
2023-05-01T08:13:38.654Z,100377.20
2023-05-01T08:16:07.368Z,100378.20
2023-05-01T08:18:35.832Z,100378.20
2023-05-01T08:21:04.277Z,100381.40
2023-05-01T08:23:33.104Z,100383.20
2023-05-01T08:26:01.634Z,100383.40
2023-05-01T08:28:30.109Z,100382.40
2023-05-01T08:30:58.554Z,100384.60
2023-05-01T08:33:26.968Z,100387.40
2023-05-01T08:35:55.437Z,100387.40
2023-05-01T08:38:24.250Z,100389.80
2023-05-01T08:40:54.437Z,100388.80
2023-05-01T08:43:24.462Z,100392.80
2023-05-01T08:45:56.593Z,100398.60
2023-05-01T08:48:27.256Z,100399.60
2023-05-01T08:50:59.964Z,100398.40
2023-05-01T08:53:35.093Z,100401.00
2023-05-01T08:56:07.898Z,100397.80
2023-05-01T08:58:37.315Z,100401.00
2023-05-01T09:01:06.737Z,100396.60
2023-05-01T09:03:36.685Z,100393.80
2023-05-01T09:06:05.994Z,100392.60
2023-05-01T09:08:34.410Z,100391.00
2023-05-01T09:11:03.831Z,100387.60
2023-05-01T09:13:32.619Z,100393.00
2023-05-01T09:16:01.386Z,100400.80
2023-05-01T09:18:31.381Z,100402.40
2023-05-01T09:20:59.901Z,100400.20
2023-05-01T09:23:28.491Z,100409.20
2023-05-01T09:25:58.476Z,100410.80
2023-05-01T09:28:46.285Z,100408.00
2023-05-01T09:31:33.027Z,100406.40
2023-05-01T09:34:03.442Z,100406.40
2023-05-01T09:36:33.853Z,100406.00
2023-05-01T09:39:02.631Z,100407.20
2023-05-01T09:41:34.112Z,100408.00
2023-05-01T09:44:03.071Z,100407.20
2023-05-01T09:46:52.346Z,100409.80
2023-05-01T09:49:20.798Z,100409.00
2023-05-01T09:51:49.916Z,100407.20
2023-05-01T09:54:20.389Z,100401.40
2023-05-01T09:56:49.888Z,100399.40
2023-05-01T09:59:22.911Z,100399.40
2023-05-01T10:01:51.601Z,100407.20
2023-05-01T10:04:40.672Z,100406.60
2023-05-01T10:07:14.065Z,100405.80
2023-05-01T10:09:42.623Z,100408.20
2023-05-01T10:12:11.181Z,100396.00
2023-05-01T10:14:57.210Z,100402.60
2023-05-01T10:17:27.926Z,100402.40
2023-05-01T10:19:56.512Z,100398.60
2023-05-01T10:22:26.591Z,100402.40
2023-05-01T10:24:55.303Z,100410.80
2023-05-01T10:27:25.965Z,100410.20
2023-05-01T10:29:54.930Z,100408.20
2023-05-01T10:32:23.913Z,100413.00
2023-05-01T10:34:58.276Z,100405.80
2023-05-01T10:38:01.044Z,100400.60
2023-05-01T10:40:41.565Z,100404.40
2023-05-01T10:43:13.685Z,100411.20
2023-05-01T10:45:46.438Z,100410.80
2023-05-01T10:48:39.746Z,100408.80
2023-05-01T10:51:20.718Z,100409.00
2023-05-01T10:54:10.062Z,100416.00
2023-05-01T10:56:38.438Z,100413.60
2023-05-01T10:59:07.529Z,100415.00
2023-05-01T11:01:40.426Z,100417.00
2023-05-01T11:04:30.248Z,100417.20
2023-05-01T11:07:11.564Z,100420.00
2023-05-01T11:09:45.187Z,100423.20
2023-05-01T11:12:15.843Z,100419.40
2023-05-01T11:15:03.293Z,100421.60
2023-05-01T11:17:41.061Z,100421.60
2023-05-01T11:20:11.244Z,100418.00
2023-05-01T11:22:47.029Z,100418.00
2023-05-01T11:25:27.914Z,100418.80
2023-05-01T11:27:58.947Z,100414.60
2023-05-01T11:30:47.890Z,100415.60
2023-05-01T11:33:22.549Z,100413.60
2023-05-01T11:35:57.378Z,100410.40
2023-05-01T11:38:25.818Z,100410.80
2023-05-01T11:40:55.841Z,100407.60
2023-05-01T11:43:24.512Z,100404.00
2023-05-01T11:45:55.340Z,100403.40
2023-05-01T11:48:23.964Z,100405.00
2023-05-01T11:50:52.452Z,100400.40
2023-05-01T11:53:21.182Z,100402.60
2023-05-01T11:55:49.844Z,100398.60
2023-05-01T11:58:18.358Z,100393.20
2023-05-01T12:00:50.916Z,100396.20
2023-05-01T12:03:19.360Z,100385.60
2023-05-01T12:05:49.354Z,100387.00
2023-05-01T12:08:20.851Z,100388.40
2023-05-01T12:10:57.560Z,100387.80
2023-05-01T12:13:29.685Z,100384.20
2023-05-01T12:15:58.470Z,100381.00
2023-05-01T12:18:27.185Z,100382.20
2023-05-01T12:20:55.653Z,100378.80
2023-05-01T12:23:32.653Z,100381.40
2023-05-01T12:26:03.170Z,100375.40
2023-05-01T12:28:31.762Z,100375.00
2023-05-01T12:31:05.439Z,100373.80
2023-05-01T12:33:34.088Z,100374.40
2023-05-01T12:36:12.085Z,100370.60
2023-05-01T12:38:40.498Z,100371.20
2023-05-01T12:41:10.716Z,100367.80
2023-05-01T12:43:39.408Z,100364.60
2023-05-01T12:46:14.805Z,100364.80
2023-05-01T12:48:44.175Z,100359.00
2023-05-01T12:51:22.075Z,100366.00
2023-05-01T12:53:52.440Z,100363.40
2023-05-01T12:56:23.860Z,100367.60
2023-05-01T12:58:53.925Z,100366.40
2023-05-01T13:01:29.300Z,100365.40
2023-05-01T13:03:58.225Z,100362.60
2023-05-01T13:06:36.146Z,100363.20
2023-05-01T13:09:12.044Z,100362.20
2023-05-01T13:11:40.421Z,100363.20
2023-05-01T13:14:10.000Z,100367.40
2023-05-01T13:16:46.751Z,100363.80
2023-05-01T13:19:41.543Z,100360.80
2023-05-01T13:22:09.983Z,100359.80
2023-05-01T13:24:39.541Z,100360.00
2023-05-01T13:27:14.362Z,100359.00
2023-05-01T13:29:42.905Z,100351.60
2023-05-01T13:32:12.188Z,100355.00
2023-05-01T13:34:42.843Z,100362.20
2023-05-01T13:37:14.699Z,100359.80
2023-05-01T13:39:44.597Z,100363.60
2023-05-01T13:42:16.277Z,100360.40
2023-05-01T13:44:51.313Z,100359.00
2023-05-01T13:47:20.066Z,100362.20
2023-05-01T13:49:48.937Z,100362.00
2023-05-01T13:52:19.241Z,100363.60
2023-05-01T13:54:48.619Z,100351.80
2023-05-01T13:57:17.505Z,100362.20
2023-05-01T13:59:47.186Z,100366.00
2023-05-01T14:02:25.408Z,100361.20
2023-05-01T14:04:54.847Z,100363.80
2023-05-01T14:07:24.976Z,100367.80
2023-05-01T14:09:56.242Z,100369.20
2023-05-01T14:12:30.433Z,100368.40
2023-05-01T14:15:03.588Z,100360.40
2023-05-01T14:17:35.381Z,100363.00
2023-05-01T14:20:08.807Z,100368.40
2023-05-01T14:22:45.847Z,100365.80
2023-05-01T14:25:24.709Z,100371.80
2023-05-01T14:27:54.310Z,100371.60
2023-05-01T14:30:27.915Z,100375.20
2023-05-01T14:32:56.910Z,100374.60
2023-05-01T14:35:25.672Z,100370.60
2023-05-01T14:37:55.284Z,100371.80
2023-05-01T14:40:27.978Z,100373.40
2023-05-01T14:42:58.009Z,100370.80
2023-05-01T14:45:26.729Z,100370.20
2023-05-01T14:47:55.132Z,100366.00
2023-05-01T14:50:24.683Z,100367.20
2023-05-01T14:52:54.648Z,100368.40
2023-05-01T14:55:28.817Z,100367.80
2023-05-01T14:57:58.107Z,100364.80
2023-05-01T15:00:27.891Z,100365.80
2023-05-01T15:02:58.728Z,100365.80
2023-05-01T15:05:28.502Z,100367.60
2023-05-01T15:07:57.276Z,100366.20
2023-05-01T15:10:25.660Z,100365.80
2023-05-01T15:12:54.064Z,100367.40
2023-05-01T15:15:22.522Z,100371.80
2023-05-01T15:17:50.900Z,100371.20
2023-05-01T15:20:19.440Z,100373.20
2023-05-01T15:22:47.821Z,100372.20
2023-05-01T15:25:16.697Z,100372.40
2023-05-01T15:27:46.100Z,100371.60
2023-05-01T15:30:15.372Z,100370.40
2023-05-01T15:32:44.112Z,100376.80
2023-05-01T15:35:13.136Z,100372.40
2023-05-01T15:37:42.358Z,100375.00
2023-05-01T15:40:10.835Z,100374.40
2023-05-01T15:42:40.087Z,100378.40
2023-05-01T15:45:09.009Z,100379.20
2023-05-01T15:47:37.508Z,100383.20
2023-05-01T15:50:09.600Z,100385.00
2023-05-01T15:52:38.666Z,100386.40
2023-05-01T15:55:07.464Z,100382.80
2023-05-01T15:57:35.971Z,100387.20
2023-05-01T16:00:04.880Z,100387.60
2023-05-01T16:02:34.205Z,100387.80
2023-05-01T16:05:02.666Z,100390.40
2023-05-01T16:07:31.069Z,100388.40
2023-05-01T16:09:59.816Z,100392.00
2023-05-01T16:12:29.107Z,100394.00
2023-05-01T16:14:57.738Z,100396.60
2023-05-01T16:17:26.179Z,100398.40
2023-05-01T16:19:55.342Z,100401.20
2023-05-01T16:22:23.773Z,100404.60
2023-05-01T16:24:52.172Z,100405.20
2023-05-01T16:27:20.692Z,100407.80
2023-05-01T16:29:49.073Z,100414.00
2023-05-01T16:32:17.472Z,100419.60
2023-05-01T16:34:45.845Z,100419.20
2023-05-01T16:37:15.992Z,100422.20
2023-05-01T16:39:44.623Z,100421.80
2023-05-01T16:42:13.487Z,100425.40
2023-05-01T16:44:41.946Z,100429.40
2023-05-01T16:47:12.423Z,100438.00
2023-05-01T16:49:46.748Z,100443.40
2023-05-01T16:52:17.755Z,100444.80
2023-05-01T16:54:46.123Z,100449.80
2023-05-01T16:57:15.520Z,100448.80
2023-05-01T16:59:43.872Z,100448.60
2023-05-01T17:02:12.310Z,100456.40
2023-05-01T17:04:40.700Z,100455.00
2023-05-01T17:07:09.099Z,100459.40
2023-05-01T17:09:37.460Z,100462.60
2023-05-01T17:12:06.393Z,100465.60
2023-05-01T17:14:34.775Z,100469.40
2023-05-01T17:17:04.551Z,100473.60
2023-05-01T17:19:39.007Z,100472.60
2023-05-01T17:22:07.922Z,100476.00
2023-05-01T17:24:36.829Z,100475.20
2023-05-01T17:27:05.243Z,100476.60
2023-05-01T17:29:35.570Z,100481.00
2023-05-01T17:32:06.748Z,100486.40
2023-05-01T17:34:35.401Z,100485.00
2023-05-01T17:37:03.933Z,100490.80
2023-05-01T17:39:32.412Z,100492.80
2023-05-01T17:42:02.567Z,100497.20
2023-05-01T17:44:31.300Z,100500.00
2023-05-01T17:46:59.791Z,100502.00
2023-05-01T17:49:28.204Z,100500.80
2023-05-01T17:51:56.871Z,100505.80
2023-05-01T17:54:25.244Z,100506.80
2023-05-01T17:56:53.630Z,100509.60
2023-05-01T17:59:22.000Z,100511.40
2023-05-01T18:01:50.470Z,100512.20
2023-05-01T18:04:19.001Z,100518.60
2023-05-01T18:06:47.636Z,100523.80
2023-05-01T18:09:16.304Z,100529.40
2023-05-01T18:11:44.988Z,100534.60
2023-05-01T18:14:13.574Z,100536.00
2023-05-01T18:16:42.370Z,100538.00
2023-05-01T18:19:10.836Z,100541.20
2023-05-01T18:21:39.966Z,100542.00
2023-05-01T18:24:08.843Z,100546.20
2023-05-01T18:26:37.424Z,100546.40
2023-05-01T18:29:05.917Z,100549.80
2023-05-01T18:31:36.019Z,100553.40
2023-05-01T18:34:04.828Z,100558.60
2023-05-01T18:36:33.370Z,100558.20
2023-05-01T18:39:02.105Z,100557.20
2023-05-01T18:41:30.557Z,100564.40
2023-05-01T18:44:01.499Z,100566.20
2023-05-01T18:46:30.299Z,100572.20
2023-05-01T18:48:59.944Z,100578.20
2023-05-01T18:51:28.329Z,100583.80
2023-05-01T18:53:56.685Z,100589.00
2023-05-01T18:56:25.870Z,100589.00
2023-05-01T18:58:55.287Z,100600.00
2023-05-01T19:01:23.765Z,100597.80
2023-05-01T19:03:52.219Z,100596.40
2023-05-01T19:06:20.746Z,100596.80
2023-05-01T19:08:49.185Z,100602.40
2023-05-01T19:11:17.614Z,100606.40
2023-05-01T19:13:46.063Z,100609.40
2023-05-01T19:16:14.748Z,100611.00
2023-05-01T19:18:43.159Z,100610.40
2023-05-01T19:21:11.703Z,100609.40
2023-05-01T19:23:41.502Z,100606.80
2023-05-01T19:26:09.920Z,100610.20
2023-05-01T19:28:38.894Z,100613.00
2023-05-01T19:31:07.959Z,100611.20
2023-05-01T19:33:40.159Z,100615.60
2023-05-01T19:36:08.547Z,100612.60
2023-05-01T19:38:39.718Z,100617.40
2023-05-01T19:45:03.731Z,100620.80
2023-05-01T19:47:32.124Z,100620.00
2023-05-01T19:50:03.526Z,100616.60
2023-05-01T19:52:31.936Z,100613.60
2023-05-01T19:55:03.257Z,100614.40
2023-05-01T19:57:31.835Z,100619.20
2023-05-01T20:00:00.492Z,100620.40
2023-05-01T20:02:29.683Z,100630.80
2023-05-01T20:04:58.472Z,100626.80
2023-05-01T20:07:28.622Z,100628.20
2023-05-01T20:09:57.454Z,100632.20
2023-05-01T20:12:26.934Z,100633.20
2023-05-01T20:15:00.562Z,100628.60
2023-05-01T20:17:29.434Z,100633.20
2023-05-01T20:19:58.258Z,100637.00
2023-05-01T20:22:26.816Z,100638.80
2023-05-01T20:24:55.178Z,100641.80
2023-05-01T20:27:23.697Z,100643.20
2023-05-01T20:29:52.117Z,100646.20
2023-05-01T20:32:20.518Z,100650.00
2023-05-01T20:34:48.891Z,100650.40
2023-05-01T20:37:17.291Z,100655.80
2023-05-01T20:39:45.667Z,100658.20
2023-05-01T20:42:13.962Z,100657.40
2023-05-01T20:44:42.483Z,100657.40
2023-05-01T20:47:15.175Z,100655.80
2023-05-01T20:49:43.903Z,100661.40
2023-05-01T20:52:12.381Z,100661.60
2023-05-01T20:54:40.817Z,100662.20
2023-05-01T20:57:09.210Z,100662.20
2023-05-01T20:59:37.596Z,100665.60
2023-05-01T21:02:06.227Z,100665.00
2023-05-01T21:04:34.719Z,100664.80
2023-05-01T21:07:03.068Z,100663.40
2023-05-01T21:09:31.550Z,100663.00
2023-05-01T21:12:00.136Z,100664.80
2023-05-01T21:14:28.581Z,100660.00
2023-05-01T21:16:57.058Z,100659.60
2023-05-01T21:19:25.457Z,100658.60
2023-05-01T21:21:55.216Z,100658.80
2023-05-01T21:24:25.640Z,100671.40
2023-05-01T21:26:54.807Z,100669.60
2023-05-01T21:29:23.252Z,100672.40
2023-05-01T21:31:51.679Z,100679.60
2023-05-01T21:34:20.085Z,100679.20
2023-05-01T21:36:49.399Z,100683.40
2023-05-01T21:39:18.017Z,100686.60
2023-05-01T21:41:48.936Z,100687.40
2023-05-01T21:44:17.770Z,100685.80
2023-05-01T21:46:46.184Z,100690.60
2023-05-01T21:49:18.748Z,100693.40
2023-05-01T21:51:47.202Z,100693.80
2023-05-01T21:54:18.362Z,100703.40
2023-05-01T21:56:48.387Z,100700.60
2023-05-01T21:59:18.029Z,100702.80
2023-05-01T22:01:46.467Z,100704.20
2023-05-01T22:04:18.911Z,100705.80
2023-05-01T22:06:47.426Z,100713.00
2023-05-01T22:09:15.972Z,100709.60
2023-05-01T22:11:44.436Z,100714.60
2023-05-01T22:14:12.892Z,100708.40
2023-05-01T22:16:41.613Z,100708.60
2023-05-01T22:19:10.004Z,100718.20
2023-05-01T22:21:39.072Z,100722.80
2023-05-01T22:24:07.586Z,100716.40
2023-05-01T22:26:36.012Z,100715.40
2023-05-01T22:29:04.376Z,100714.80
2023-05-01T22:31:32.820Z,100716.40
2023-05-01T22:34:01.447Z,100721.60
2023-05-01T22:36:31.446Z,100720.20
2023-05-01T22:38:59.837Z,100720.00
2023-05-01T22:41:28.145Z,100719.60
2023-05-01T22:43:57.100Z,100715.80
2023-05-01T22:46:25.909Z,100714.20
2023-05-01T22:48:54.331Z,100709.60
2023-05-01T22:51:22.690Z,100709.80
2023-05-01T22:53:50.984Z,100709.00
2023-05-01T22:56:19.810Z,100707.00
2023-05-01T22:58:48.295Z,100704.00
2023-05-01T23:01:16.686Z,100702.80
2023-05-01T23:03:45.181Z,100704.20
2023-05-01T23:06:13.669Z,100705.40
2023-05-01T23:09:03.440Z,100700.40
2023-05-01T23:11:33.556Z,100697.40
2023-05-01T23:14:02.337Z,100700.40
2023-05-01T23:16:36.776Z,100706.20
2023-05-01T23:19:05.305Z,100705.80
2023-05-01T23:21:33.624Z,100704.80
2023-05-01T23:24:02.086Z,100702.40
2023-05-01T23:26:30.679Z,100703.00
2023-05-01T23:29:00.285Z,100705.40
2023-05-01T23:31:29.375Z,100702.20
2023-05-01T23:33:58.160Z,100699.80
2023-05-01T23:36:28.988Z,100696.20
2023-05-01T23:38:57.415Z,100694.60
2023-05-01T23:41:26.278Z,100696.80
2023-05-01T23:43:54.598Z,100695.80
2023-05-01T23:46:23.041Z,100692.60
2023-05-01T23:48:51.459Z,100691.20
2023-05-01T23:51:19.877Z,100688.20
2023-05-01T23:53:48.287Z,100688.80
2023-05-01T23:56:16.627Z,100686.00
2023-05-01T23:58:45.110Z,100689.00
